Hovedside
METAR-TAF:

METAR-TAF

Lufthavner :

Nouakchott internasjonale lufthavn

Nouakchott, Mauritania

breddegrad: 18-18-36N, lengdegrad: 015-58-11W, høyde over havet: 3 m

Gjeldene værobservasjon

Denne rapporten ble laget for 36 minutter siden, klokken 15:00 UTC
Vind 9 kt fra Nord, skiftende mellom Nord-nordvest og Nordøst
Temperatur 35°C
Luftfuktighet 47%
Trykk 1011 hPa
Sikt: 7000 m

METAR: GQNO 201500Z 01009KT 340V040 7000 NSC 35/22 Q1011 NOSIG

Tid: 15:36 (15:36 UTC)

Varsel

Denne rapporten ble laget for 4 timer og 36 minutter siden, klokken 11:00 UTC
Varsel gyldig fra 20. klokken 12 UTC til 21. klokken 18 UTC
Vind 10 kt fra Nordøst
Sikt: 8000 m
Sannsynlighet 30% :
Midlertidig
fra 20. klokken 12 UTC til 20. klokken 16 UTC
Sikt: 4000 m
støvdrev
Blir
fra 20. klokken 15 UTC til 20. klokken 18 UTC
Vind 12 kt fra Nord

TAF: GQNO 201100Z 2012/2118 05010KT 8000 NSC PROB30 TEMPO 2012/2016 4000 BLDU BECMG 2015/2018 35012KT

Værobservasjoner og værvarsel for over 4000 flyplasser (METAR- og TAF-rapporter).

Tilgjengelige stasjoner er representert av de røde og gule prikkene på kartet.

Hold musepekeren over prikken for å se navnet på stasjonen.

Klikk så for å se værobservasjoner og -varsler.

For å forandre kartet kan du klikke på den grønne knappen med svart kryss for å zoome inn, på den grønne knappen med strek for å zoome ut, eller på de grønne pilene for å se tilstøtende kart.


METAR-TAF: